Airfield :
LOGIN :

Register | Disclaimer

   EN    FR    IT 

 










Legend :    VFR   Marginal VFR   IFR   Intensive IFR   Very Intensive IFR
Visi :
Ceiling :
>= 8 km
>= 3000ft
5 to 8 km
1000 to 3000 ft
1500m to 5 km
500 to 1000 ft
800 to 1500m
200 to 500 ft
< 800m
< 200 ft
Symbols :   Thunderstorms  Fog  Heavy snow  Heavy precipitations  Wind > 20 kt
SIGMETs :     Misc.  Thunderstorms  Icing  Turbulence  Mountain Waves  Volcanic Ashes






- Airport Elevation : 512 ft
- IATA code : URO


LFOP - Rouen Vallée de Seine

CURRENT METAR :
  • 251530Z AUTO 27013KT 240V310 9999 SCT032 BKN039 BKN048 08/03 Q1002 TEMPO 25025G45KT 1200 TSRAGS BKN015CB

EXPIRED METARs :
  • 251500Z AUTO 27014KT 240V310 9999 BKN032 BKN040 BKN046 09/04 Q1002 TEMPO 25025G45KT 1200 TSRAGS BKN015CB
  • 251430Z AUTO 26016KT 9999 BKN027 BKN032 BKN039 08/03 Q1003 TEMPO 25025G45KT 1200 TSRAGS BKN015CB
  • 251400Z AUTO 25013KT 9999 BKN020 BKN026 OVC035 09/05 Q1003 TEMPO 25025G45KT 1200 TSRAGS BKN015CB
  • 251330Z AUTO 25011KT 9999 FEW028/// BKN043/// BKN058/// ///TCU 07/06 Q1004 TEMPO 25025G45KT 1200 TSRAGS BKN015CB
  • 251300Z AUTO 27019KT 240V310 9999 -RA FEW016/// BKN026/// OVC033/// ///TCU 07/05 Q1004 TEMPO 25025G45KT 1200 TSRAGS BKN015CB
  • 251230Z AUTO 24017KT 9999 BKN025/// BKN034/// BKN048/// ///TCU 09/04 Q1004 TEMPO 25025G45KT 1200 TSRAGS BKN015CB

TAF TAF LFOP
Valid from the 25 at 12:00 until the 26 at 12:00 UTC


251100Z 2512/2612 25013KT 9999 BKN025
TEMPO 2512/2608 25018G35KT 3000 SHRA BKN020CB
PROB40
TEMPO 2513/2606 25025G45KT 1200 TSRAGS BKN015CB
PROB30
TEMPO 2521/2608 0500 SHSN
BECMG 2605/2608 31012KT
TEMPO 2608/2612 31018G28KT BKN030CB
ATIS : +33 2 35 80 80 34
Met : +33 2 32 86 52 80



MET'MAP, your aeronautical weather chart ! - Copyright ORBIFLY December 2007 - Disclaimer

ORBIFLY MET'MAP TEAM :

Programming & Development : Alexandra Zaïnal
Concept & original design : Baudouin d'Aumeries
Assistance for programming : Marc-Olivier Méhu
Technical & hardware support : Manuel Goepfert

Contact : metmap@orbifly.com




SOURCES & CREDITS :

   NOAA